sensor_id;sensor_type;location;lat;lon;timestamp;pressure;altitude;pressure_sealevel;temperature;humidity
15670;BME280;18524;45.190;5.732;2023-04-21T00:02:15;98576.38;;;11.67;100.00
15670;BME280;18524;45.190;5.732;2023-04-21T00:07:06;98563.25;;;11.67;100.00
15670;BME280;18524;45.190;5.732;2023-04-21T00:11:57;98548.84;;;11.71;100.00
15670;BME280;18524;45.190;5.732;2023-04-21T00:16:48;98543.03;;;11.77;100.00
15670;BME280;18524;45.190;5.732;2023-04-21T00:21:41;98530.75;;;11.68;100.00
15670;BME280;18524;45.190;5.732;2023-04-21T00:26:32;98527.81;;;11.80;100.00
15670;BME280;18524;45.190;5.732;2023-04-21T00:31:22;98526.59;;;11.75;100.00
15670;BME280;18524;45.190;5.732;2023-04-21T00:36:12;98528.34;;;11.56;100.00
15670;BME280;18524;45.190;5.732;2023-04-21T00:41:03;98526.25;;;11.50;100.00
15670;BME280;18524;45.190;5.732;2023-04-21T00:45:53;98532.75;;;11.56;100.00
15670;BME280;18524;45.190;5.732;2023-04-21T00:50:44;98522.41;;;11.54;100.00
15670;BME280;18524;45.190;5.732;2023-04-21T00:55:34;98529.69;;;11.61;100.00
15670;BME280;18524;45.190;5.732;2023-04-21T01:00:25;98524.16;;;11.64;100.00
15670;BME280;18524;45.190;5.732;2023-04-21T01:05:15;98529.13;;;11.67;100.00
15670;BME280;18524;45.190;5.732;2023-04-21T01:10:08;98538.00;;;11.56;100.00
15670;BME280;18524;45.190;5.732;2023-04-21T01:14:59;98541.34;;;11.48;100.00
15670;BME280;18524;45.190;5.732;2023-04-21T01:19:50;98539.41;;;11.50;100.00
15670;BME280;18524;45.190;5.732;2023-04-21T01:24:46;98545.75;;;11.48;100.00
15670;BME280;18524;45.190;5.732;2023-04-21T01:29:39;98535.53;;;11.54;100.00
15670;BME280;18524;45.190;5.732;2023-04-21T01:34:30;98533.84;;;11.63;100.00
15670;BME280;18524;45.190;5.732;2023-04-21T01:39:20;98521.22;;;11.67;100.00
15670;BME280;18524;45.190;5.732;2023-04-21T01:44:10;98513.59;;;11.73;100.00
15670;BME280;18524;45.190;5.732;2023-04-21T01:49:01;98506.97;;;11.79;100.00
15670;BME280;18524;45.190;5.732;2023-04-21T01:53:51;98501.59;;;11.71;100.00
15670;BME280;18524;45.190;5.732;2023-04-21T01:58:41;98516.41;;;11.62;100.00
15670;BME280;18524;45.190;5.732;2023-04-21T02:03:32;98525.19;;;11.43;100.00
15670;BME280;18524;45.190;5.732;2023-04-21T02:08:22;98520.81;;;11.34;100.00
15670;BME280;18524;45.190;5.732;2023-04-21T02:13:12;98520.53;;;11.37;100.00
15670;BME280;18524;45.190;5.732;2023-04-21T02:18:03;98515.84;;;11.31;100.00
15670;BME280;18524;45.190;5.732;2023-04-21T02:22:53;98515.47;;;11.26;100.00
15670;BME280;18524;45.190;5.732;2023-04-21T02:27:44;98516.72;;;11.22;100.00
15670;BME280;18524;45.190;5.732;2023-04-21T02:32:34;98521.69;;;11.25;100.00
15670;BME280;18524;45.190;5.732;2023-04-21T02:37:24;98508.84;;;11.12;100.00
15670;BME280;18524;45.190;5.732;2023-04-21T02:42:15;98506.50;;;11.09;100.00
15670;BME280;18524;45.190;5.732;2023-04-21T02:47:06;98507.78;;;10.95;100.00
15670;BME280;18524;45.190;5.732;2023-04-21T02:51:59;98500.47;;;10.99;100.00
15670;BME280;18524;45.190;5.732;2023-04-21T02:56:49;98499.78;;;10.97;100.00
15670;BME280;18524;45.190;5.732;2023-04-21T03:01:40;98503.53;;;10.85;100.00
15670;BME280;18524;45.190;5.732;2023-04-21T03:06:32;98480.22;;;10.72;100.00
15670;BME280;18524;45.190;5.732;2023-04-21T03:11:22;98495.66;;;10.75;100.00
15670;BME280;18524;45.190;5.732;2023-04-21T03:16:13;98493.34;;;10.72;100.00
15670;BME280;18524;45.190;5.732;2023-04-21T03:21:03;98479.53;;;10.70;100.00
15670;BME280;18524;45.190;5.732;2023-04-21T03:25:54;98484.94;;;10.59;100.00
15670;BME280;18524;45.190;5.732;2023-04-21T03:30:44;98466.72;;;10.57;100.00
15670;BME280;18524;45.190;5.732;2023-04-21T03:35:34;98490.31;;;10.38;100.00
15670;BME280;18524;45.190;5.732;2023-04-21T03:40:25;98491.69;;;10.32;100.00
15670;BME280;18524;45.190;5.732;2023-04-21T03:45:15;98495.69;;;10.37;100.00
15670;BME280;18524;45.190;5.732;2023-04-21T03:50:08;98496.41;;;10.48;100.00
15670;BME280;18524;45.190;5.732;2023-04-21T03:54:59;98501.78;;;10.47;100.00
15670;BME280;18524;45.190;5.732;2023-04-21T03:59:49;98516.28;;;10.51;100.00
15670;BME280;18524;45.190;5.732;2023-04-21T04:04:40;98504.41;;;10.47;100.00
15670;BME280;18524;45.190;5.732;2023-04-21T04:09:30;98516.13;;;10.52;100.00
15670;BME280;18524;45.190;5.732;2023-04-21T04:14:21;98514.19;;;10.54;100.00
15670;BME280;18524;45.190;5.732;2023-04-21T04:19:11;98519.72;;;10.61;100.00
15670;BME280;18524;45.190;5.732;2023-04-21T04:24:01;98520.56;;;10.52;100.00
15670;BME280;18524;45.190;5.732;2023-04-21T04:28:54;98515.19;;;10.44;100.00
15670;BME280;18524;45.190;5.732;2023-04-21T04:33:45;98520.41;;;10.24;100.00
15670;BME280;18524;45.190;5.732;2023-04-21T04:38:35;98498.19;;;10.28;100.00
15670;BME280;18524;45.190;5.732;2023-04-21T04:43:27;98496.69;;;10.26;100.00
15670;BME280;18524;45.190;5.732;2023-04-21T04:48:17;98493.50;;;10.32;100.00
15670;BME280;18524;45.190;5.732;2023-04-21T04:53:07;98503.44;;;10.28;100.00
15670;BME280;18524;45.190;5.732;2023-04-21T04:57:58;98502.19;;;10.23;100.00
15670;BME280;18524;45.190;5.732;2023-04-21T05:02:48;98507.59;;;10.41;100.00
15670;BME280;18524;45.190;5.732;2023-04-21T05:07:38;98526.19;;;10.38;100.00
15670;BME280;18524;45.190;5.732;2023-04-21T05:12:29;98529.94;;;10.45;100.00
15670;BME280;18524;45.190;5.732;2023-04-21T05:17:21;98532.13;;;10.40;100.00
15670;BME280;18524;45.190;5.732;2023-04-21T05:22:11;98539.88;;;10.41;100.00
15670;BME280;18524;45.190;5.732;2023-04-21T05:27:02;98544.84;;;10.44;100.00
15670;BME280;18524;45.190;5.732;2023-04-21T05:31:52;98548.97;;;10.56;100.00
15670;BME280;18524;45.190;5.732;2023-04-21T05:36:43;98532.13;;;10.59;100.00
15670;BME280;18524;45.190;5.732;2023-04-21T05:41:33;98535.84;;;10.66;100.00
15670;BME280;18524;45.190;5.732;2023-04-21T05:46:23;98533.38;;;10.45;100.00
15670;BME280;18524;45.190;5.732;2023-04-21T05:51:14;98537.09;;;10.52;100.00
15670;BME280;18524;45.190;5.732;2023-04-21T05:56:05;98535.31;;;10.53;100.00
15670;BME280;18524;45.190;5.732;2023-04-21T06:00:57;98536.00;;;10.55;100.00
15670;BME280;18524;45.190;5.732;2023-04-21T06:05:52;98541.25;;;10.84;100.00
15670;BME280;18524;45.190;5.732;2023-04-21T06:10:43;98539.78;;;11.09;100.00
15670;BME280;18524;45.190;5.732;2023-04-21T06:15:35;98531.69;;;11.76;100.00
15670;BME280;18524;45.190;5.732;2023-04-21T06:20:25;98528.94;;;12.05;100.00
15670;BME280;18524;45.190;5.732;2023-04-21T06:25:16;98516.44;;;12.35;100.00
15670;BME280;18524;45.190;5.732;2023-04-21T06:30:07;98523.84;;;12.57;100.00
15670;BME280;18524;45.190;5.732;2023-04-21T06:34:57;98526.59;;;12.91;100.00
15670;BME280;18524;45.190;5.732;2023-04-21T06:39:47;98510.00;;;13.42;100.00
15670;BME280;18524;45.190;5.732;2023-04-21T06:44:38;98510.94;;;13.33;100.00
15670;BME280;18524;45.190;5.732;2023-04-21T06:49:28;98507.31;;;13.34;100.00
15670;BME280;18524;45.190;5.732;2023-04-21T06:54:19;98514.22;;;13.35;100.00
15670;BME280;18524;45.190;5.732;2023-04-21T06:59:09;98504.91;;;13.41;100.00
15670;BME280;18524;45.190;5.732;2023-04-21T07:04:00;98501.06;;;13.09;100.00
15670;BME280;18524;45.190;5.732;2023-04-21T07:08:50;98498.53;;;13.26;100.00
15670;BME280;18524;45.190;5.732;2023-04-21T07:13:40;98504.00;;;13.66;100.00
15670;BME280;18524;45.190;5.732;2023-04-21T07:18:31;98502.50;;;13.64;100.00
15670;BME280;18524;45.190;5.732;2023-04-21T07:23:22;98516.47;;;13.90;100.00
15670;BME280;18524;45.190;5.732;2023-04-21T07:28:12;98506.66;;;14.41;100.00
15670;BME280;18524;45.190;5.732;2023-04-21T07:33:05;98504.06;;;14.82;100.00
15670;BME280;18524;45.190;5.732;2023-04-21T07:37:55;98490.22;;;14.96;99.84
15670;BME280;18524;45.190;5.732;2023-04-21T07:42:45;98500.88;;;15.19;97.99
15670;BME280;18524;45.190;5.732;2023-04-21T07:47:36;98508.28;;;15.23;94.18
15670;BME280;18524;45.190;5.732;2023-04-21T07:52:26;98497.38;;;15.35;93.62
15670;BME280;18524;45.190;5.732;2023-04-21T07:57:17;98498.47;;;15.65;93.05
15670;BME280;18524;45.190;5.732;2023-04-21T08:02:07;98491.03;;;15.68;92.74
15670;BME280;18524;45.190;5.732;2023-04-21T08:06:58;98485.47;;;16.17;90.03
15670;BME280;18524;45.190;5.732;2023-04-21T08:11:48;98485.59;;;16.69;87.79
15670;BME280;18524;45.190;5.732;2023-04-21T08:16:39;98498.63;;;16.94;83.72
15670;BME280;18524;45.190;5.732;2023-04-21T08:21:31;98490.50;;;16.95;84.01
15670;BME280;18524;45.190;5.732;2023-04-21T08:26:22;98480.56;;;16.37;83.17
15670;BME280;18524;45.190;5.732;2023-04-21T08:31:14;98483.47;;;16.19;83.47
15670;BME280;18524;45.190;5.732;2023-04-21T08:36:05;98492.47;;;15.79;85.55
15670;BME280;18524;45.190;5.732;2023-04-21T08:40:58;98488.16;;;16.40;83.50
15670;BME280;18524;45.190;5.732;2023-04-21T08:45:49;98493.03;;;16.74;82.04
15670;BME280;18524;45.190;5.732;2023-04-21T08:50:42;98483.44;;;17.10;79.92
15670;BME280;18524;45.190;5.732;2023-04-21T08:55:34;98498.63;;;16.79;80.81
15670;BME280;18524;45.190;5.732;2023-04-21T09:00:25;98485.00;;;16.13;82.45
15670;BME280;18524;45.190;5.732;2023-04-21T09:05:24;98479.13;;;16.49;83.55
15670;BME280;18524;45.190;5.732;2023-04-21T09:10:21;98500.91;;;16.82;81.76
15670;BME280;18524;45.190;5.732;2023-04-21T09:15:11;98512.00;;;16.54;80.36
15670;BME280;18524;45.190;5.732;2023-04-21T09:25:05;98509.94;;;15.88;85.89
15670;BME280;18524;45.190;5.732;2023-04-21T09:30:02;98504.50;;;15.81;84.15
15670;BME280;18524;45.190;5.732;2023-04-21T09:34:58;98514.16;;;16.05;84.22
15670;BME280;18524;45.190;5.732;2023-04-21T09:39:49;98507.94;;;16.21;84.89
15670;BME280;18524;45.190;5.732;2023-04-21T09:44:40;98513.88;;;16.77;81.88
15670;BME280;18524;45.190;5.732;2023-04-21T09:49:34;98508.31;;;16.86;79.72
15670;BME280;18524;45.190;5.732;2023-04-21T09:54:32;98503.34;;;17.36;77.79
15670;BME280;18524;45.190;5.732;2023-04-21T09:59:29;98499.31;;;17.99;74.88
15670;BME280;18524;45.190;5.732;2023-04-21T10:04:21;98501.25;;;18.26;73.58
15670;BME280;18524;45.190;5.732;2023-04-21T10:09:15;98492.06;;;18.50;73.70
15670;BME280;18524;45.190;5.732;2023-04-21T10:14:07;98477.94;;;18.22;73.85
15670;BME280;18524;45.190;5.732;2023-04-21T10:18:58;98485.34;;;18.26;75.42
15670;BME280;18524;45.190;5.732;2023-04-21T10:23:51;98478.16;;;18.63;73.43
15670;BME280;18524;45.190;5.732;2023-04-21T10:29:04;98463.84;;;18.92;70.36
15670;BME280;18524;45.190;5.732;2023-04-21T10:38:55;98464.50;;;19.56;68.04
15670;BME280;18524;45.190;5.732;2023-04-21T10:43:50;98458.09;;;19.51;66.49
15670;BME280;18524;45.190;5.732;2023-04-21T10:48:40;98458.66;;;19.81;65.90
15670;BME280;18524;45.190;5.732;2023-04-21T10:53:42;98456.22;;;19.79;64.57
15670;BME280;18524;45.190;5.732;2023-04-21T10:58:33;98454.25;;;20.08;62.99
15670;BME280;18524;45.190;5.732;2023-04-21T11:03:33;98448.66;;;19.89;62.40
15670;BME280;18524;45.190;5.732;2023-04-21T11:08:24;98455.06;;;20.08;63.73
15670;BME280;18524;45.190;5.732;2023-04-21T11:13:14;98446.06;;;20.16;62.15
15670;BME280;18524;45.190;5.732;2023-04-21T11:18:05;98445.06;;;20.23;63.46
15670;BME280;18524;45.190;5.732;2023-04-21T11:22:57;98445.69;;;20.39;64.33
15670;BME280;18524;45.190;5.732;2023-04-21T11:27:57;98436.09;;;20.64;61.75
15670;BME280;18524;45.190;5.732;2023-04-21T11:32:53;98422.97;;;20.89;62.79
15670;BME280;18524;45.190;5.732;2023-04-21T11:37:44;98414.97;;;20.96;60.87
15670;BME280;18524;45.190;5.732;2023-04-21T11:42:35;98405.91;;;21.23;59.57
15670;BME280;18524;45.190;5.732;2023-04-21T11:47:27;98407.41;;;21.64;59.75
15670;BME280;18524;45.190;5.732;2023-04-21T11:52:28;98421.47;;;21.84;59.57
15670;BME280;18524;45.190;5.732;2023-04-21T11:57:22;98400.88;;;22.54;59.05
15670;BME280;18524;45.190;5.732;2023-04-21T12:02:23;98397.81;;;23.00;53.27
15670;BME280;18524;45.190;5.732;2023-04-21T12:07:21;98395.47;;;23.11;50.29
15670;BME280;18524;45.190;5.732;2023-04-21T12:12:12;98388.69;;;23.45;48.89
15670;BME280;18524;45.190;5.732;2023-04-21T12:17:05;98398.13;;;23.65;44.21
15670;BME280;18524;45.190;5.732;2023-04-21T12:21:55;98400.72;;;23.35;45.83
15670;BME280;18524;45.190;5.732;2023-04-21T12:26:46;98402.81;;;23.33;45.38
15670;BME280;18524;45.190;5.732;2023-04-21T12:31:37;98397.44;;;23.33;44.22
15670;BME280;18524;45.190;5.732;2023-04-21T12:36:27;98396.94;;;23.43;42.35
15670;BME280;18524;45.190;5.732;2023-04-21T12:41:17;98395.13;;;23.74;42.00
15670;BME280;18524;45.190;5.732;2023-04-21T12:46:08;98403.94;;;24.22;36.91
15670;BME280;18524;45.190;5.732;2023-04-21T12:50:58;98389.94;;;24.20;36.41
15670;BME280;18524;45.190;5.732;2023-04-21T12:55:49;98393.03;;;24.36;36.37
15670;BME280;18524;45.190;5.732;2023-04-21T13:00:39;98391.06;;;24.43;36.81
15670;BME280;18524;45.190;5.732;2023-04-21T13:05:30;98365.53;;;24.28;32.51
15670;BME280;18524;45.190;5.732;2023-04-21T13:10:21;98374.16;;;24.30;33.86
15670;BME280;18524;45.190;5.732;2023-04-21T13:15:11;98381.03;;;24.38;35.18
15670;BME280;18524;45.190;5.732;2023-04-21T13:20:02;98379.63;;;24.47;35.27
15670;BME280;18524;45.190;5.732;2023-04-21T13:24:53;98382.09;;;24.49;34.65
15670;BME280;18524;45.190;5.732;2023-04-21T13:29:44;98376.94;;;24.36;34.47
15670;BME280;18524;45.190;5.732;2023-04-21T13:34:34;98370.06;;;24.40;35.62
15670;BME280;18524;45.190;5.732;2023-04-21T13:39:25;98370.53;;;24.37;34.53
15670;BME280;18524;45.190;5.732;2023-04-21T13:44:16;98361.81;;;24.41;34.81
15670;BME280;18524;45.190;5.732;2023-04-21T13:49:07;98354.66;;;24.23;33.77
15670;BME280;18524;45.190;5.732;2023-04-21T13:53:57;98351.47;;;24.15;34.56
15670;BME280;18524;45.190;5.732;2023-04-21T13:58:47;98346.84;;;24.22;36.25
15670;BME280;18524;45.190;5.732;2023-04-21T14:03:38;98343.00;;;24.18;36.26
15670;BME280;18524;45.190;5.732;2023-04-21T14:08:28;98343.88;;;24.12;34.91
15670;BME280;18524;45.190;5.732;2023-04-21T14:13:18;98338.41;;;24.07;33.77
15670;BME280;18524;45.190;5.732;2023-04-21T14:18:09;98339.47;;;24.06;35.12
15670;BME280;18524;45.190;5.732;2023-04-21T14:23:00;98340.50;;;24.05;32.72
15670;BME280;18524;45.190;5.732;2023-04-21T14:27:50;98333.72;;;23.90;35.06
15670;BME280;18524;45.190;5.732;2023-04-21T14:32:40;98333.38;;;23.98;35.07
15670;BME280;18524;45.190;5.732;2023-04-21T14:37:34;98324.75;;;23.96;36.15
15670;BME280;18524;45.190;5.732;2023-04-21T14:42:24;98330.13;;;24.08;35.59
15670;BME280;18524;45.190;5.732;2023-04-21T14:47:15;98319.88;;;24.05;35.68
15670;BME280;18524;45.190;5.732;2023-04-21T14:52:05;98333.25;;;23.82;34.01
15670;BME280;18524;45.190;5.732;2023-04-21T14:56:56;98321.44;;;23.71;36.59
15670;BME280;18524;45.190;5.732;2023-04-21T15:01:47;98340.97;;;23.72;34.28
15670;BME280;18524;45.190;5.732;2023-04-21T15:06:37;98338.72;;;23.57;34.64
15670;BME280;18524;45.190;5.732;2023-04-21T15:11:27;98335.75;;;23.47;36.34
15670;BME280;18524;45.190;5.732;2023-04-21T15:16:18;98343.78;;;23.47;37.60
15670;BME280;18524;45.190;5.732;2023-04-21T15:21:08;98345.09;;;23.37;36.65
15670;BME280;18524;45.190;5.732;2023-04-21T15:25:59;98340.22;;;23.34;35.05
15670;BME280;18524;45.190;5.732;2023-04-21T15:30:49;98343.78;;;23.28;36.50
15670;BME280;18524;45.190;5.732;2023-04-21T15:35:40;98337.72;;;23.21;36.33
15670;BME280;18524;45.190;5.732;2023-04-21T15:40:30;98336.63;;;23.11;37.17
15670;BME280;18524;45.190;5.732;2023-04-21T15:45:21;98324.41;;;22.96;38.37
15670;BME280;18524;45.190;5.732;2023-04-21T15:50:11;98324.78;;;22.82;38.42
15670;BME280;18524;45.190;5.732;2023-04-21T15:55:02;98331.00;;;22.75;38.74
15670;BME280;18524;45.190;5.732;2023-04-21T15:59:52;98348.66;;;22.76;39.28
15670;BME280;18524;45.190;5.732;2023-04-21T16:04:43;98343.00;;;22.66;38.77
15670;BME280;18524;45.190;5.732;2023-04-21T16:09:33;98340.47;;;22.53;37.44
15670;BME280;18524;45.190;5.732;2023-04-21T16:14:23;98339.09;;;22.44;38.12
15670;BME280;18524;45.190;5.732;2023-04-21T16:19:14;98346.25;;;22.50;39.42
15670;BME280;18524;45.190;5.732;2023-04-21T16:24:05;98342.50;;;22.33;39.69
15670;BME280;18524;45.190;5.732;2023-04-21T16:28:56;98340.72;;;22.20;39.67
15670;BME280;18524;45.190;5.732;2023-04-21T16:33:46;98343.41;;;22.20;41.54
15670;BME280;18524;45.190;5.732;2023-04-21T16:38:38;98350.88;;;22.11;39.68
15670;BME280;18524;45.190;5.732;2023-04-21T16:43:28;98351.34;;;22.02;40.48
15670;BME280;18524;45.190;5.732;2023-04-21T16:48:19;98361.25;;;21.88;40.92
15670;BME280;18524;45.190;5.732;2023-04-21T16:53:09;98348.94;;;21.94;42.05
15670;BME280;18524;45.190;5.732;2023-04-21T16:58:00;98342.84;;;21.80;41.63
15670;BME280;18524;45.190;5.732;2023-04-21T17:02:50;98351.59;;;21.62;41.71
15670;BME280;18524;45.190;5.732;2023-04-21T17:07:41;98356.94;;;21.56;41.70
15670;BME280;18524;45.190;5.732;2023-04-21T17:12:32;98355.13;;;21.49;41.43
15670;BME280;18524;45.190;5.732;2023-04-21T17:17:22;98359.66;;;21.42;41.90
15670;BME280;18524;45.190;5.732;2023-04-21T17:22:13;98361.56;;;21.35;39.87
15670;BME280;18524;45.190;5.732;2023-04-21T17:27:03;98374.72;;;21.24;43.25
15670;BME280;18524;45.190;5.732;2023-04-21T17:31:53;98370.84;;;21.06;43.12
15670;BME280;18524;45.190;5.732;2023-04-21T17:36:44;98376.44;;;20.91;41.88
15670;BME280;18524;45.190;5.732;2023-04-21T17:41:34;98390.97;;;20.96;43.52
15670;BME280;18524;45.190;5.732;2023-04-21T17:46:26;98384.84;;;20.82;44.29
15670;BME280;18524;45.190;5.732;2023-04-21T17:51:16;98384.44;;;20.65;43.40
15670;BME280;18524;45.190;5.732;2023-04-21T17:56:08;98388.34;;;20.69;41.86
15670;BME280;18524;45.190;5.732;2023-04-21T18:01:00;98393.28;;;20.59;42.28
15670;BME280;18524;45.190;5.732;2023-04-21T18:05:50;98390.00;;;20.57;43.54
15670;BME280;18524;45.190;5.732;2023-04-21T18:10:41;98403.75;;;20.47;44.68
15670;BME280;18524;45.190;5.732;2023-04-21T18:15:31;98401.88;;;20.41;42.75
15670;BME280;18524;45.190;5.732;2023-04-21T18:20:22;98405.13;;;20.37;43.92
15670;BME280;18524;45.190;5.732;2023-04-21T18:25:12;98415.16;;;20.21;44.80
15670;BME280;18524;45.190;5.732;2023-04-21T18:30:04;98408.38;;;20.12;43.08
15670;BME280;18524;45.190;5.732;2023-04-21T18:34:55;98423.09;;;20.02;44.65
15670;BME280;18524;45.190;5.732;2023-04-21T18:39:45;98435.34;;;19.89;44.98
15670;BME280;18524;45.190;5.732;2023-04-21T18:44:36;98434.13;;;19.92;44.47
15670;BME280;18524;45.190;5.732;2023-04-21T18:49:26;98431.22;;;19.80;44.47
15670;BME280;18524;45.190;5.732;2023-04-21T18:54:16;98441.88;;;19.74;44.46
15670;BME280;18524;45.190;5.732;2023-04-21T18:59:07;98446.94;;;19.68;44.49
15670;BME280;18524;45.190;5.732;2023-04-21T19:03:58;98444.31;;;19.75;45.99
15670;BME280;18524;45.190;5.732;2023-04-21T19:08:49;98450.00;;;19.65;44.63
15670;BME280;18524;45.190;5.732;2023-04-21T19:13:42;98449.16;;;19.65;44.77
15670;BME280;18524;45.190;5.732;2023-04-21T19:18:33;98457.53;;;19.55;44.32
15670;BME280;18524;45.190;5.732;2023-04-21T19:23:23;98453.03;;;19.56;46.04
15670;BME280;18524;45.190;5.732;2023-04-21T19:28:13;98453.28;;;19.67;44.20
15670;BME280;18524;45.190;5.732;2023-04-21T19:33:04;98467.56;;;19.60;44.67
15670;BME280;18524;45.190;5.732;2023-04-21T19:37:54;98467.16;;;19.56;44.94
15670;BME280;18524;45.190;5.732;2023-04-21T19:42:45;98459.28;;;19.42;46.37
15670;BME280;18524;45.190;5.732;2023-04-21T19:47:35;98458.22;;;19.36;46.11
15670;BME280;18524;45.190;5.732;2023-04-21T19:52:26;98459.63;;;19.32;46.57
15670;BME280;18524;45.190;5.732;2023-04-21T19:57:16;98466.31;;;19.21;46.77
15670;BME280;18524;45.190;5.732;2023-04-21T20:02:06;98471.47;;;19.29;45.42
15670;BME280;18524;45.190;5.732;2023-04-21T20:06:57;98461.97;;;19.14;47.74
15670;BME280;18524;45.190;5.732;2023-04-21T20:11:47;98457.91;;;19.18;47.81
15670;BME280;18524;45.190;5.732;2023-04-21T20:16:38;98457.44;;;19.08;46.56
15670;BME280;18524;45.190;5.732;2023-04-21T20:21:28;98454.59;;;19.09;46.24
15670;BME280;18524;45.190;5.732;2023-04-21T20:26:19;98456.63;;;19.07;46.83
15670;BME280;18524;45.190;5.732;2023-04-21T20:31:09;98452.78;;;19.16;44.89
15670;BME280;18524;45.190;5.732;2023-04-21T20:36:00;98453.75;;;19.09;44.42
15670;BME280;18524;45.190;5.732;2023-04-21T20:40:56;98451.53;;;19.12;45.57
15670;BME280;18524;45.190;5.732;2023-04-21T20:45:46;98461.50;;;19.03;44.49
15670;BME280;18524;45.190;5.732;2023-04-21T20:50:37;98459.47;;;19.05;45.52
15670;BME280;18524;45.190;5.732;2023-04-21T20:55:29;98463.31;;;18.96;44.86
15670;BME280;18524;45.190;5.732;2023-04-21T21:00:19;98465.09;;;19.24;43.96
15670;BME280;18524;45.190;5.732;2023-04-21T21:05:10;98480.94;;;19.04;45.14
15670;BME280;18524;45.190;5.732;2023-04-21T21:10:00;98482.75;;;19.03;45.23
15670;BME280;18524;45.190;5.732;2023-04-21T21:14:51;98473.34;;;19.01;44.64
15670;BME280;18524;45.190;5.732;2023-04-21T21:19:41;98483.97;;;19.01;45.07
15670;BME280;18524;45.190;5.732;2023-04-21T21:24:32;98486.28;;;18.83;46.24
15670;BME280;18524;45.190;5.732;2023-04-21T21:29:23;98487.63;;;18.72;45.71
15670;BME280;18524;45.190;5.732;2023-04-21T21:34:13;98493.19;;;18.77;45.53
15670;BME280;18524;45.190;5.732;2023-04-21T21:39:04;98489.50;;;18.78;45.53
15670;BME280;18524;45.190;5.732;2023-04-21T21:43:55;98503.47;;;18.87;47.26
15670;BME280;18524;45.190;5.732;2023-04-21T21:48:45;98506.13;;;18.87;46.63
15670;BME280;18524;45.190;5.732;2023-04-21T21:53:36;98497.97;;;18.88;46.22
15670;BME280;18524;45.190;5.732;2023-04-21T21:58:26;98499.50;;;18.76;45.76
15670;BME280;18524;45.190;5.732;2023-04-21T22:03:18;98496.59;;;18.71;47.13
15670;BME280;18524;45.190;5.732;2023-04-21T22:08:08;98497.47;;;18.78;45.64
15670;BME280;18524;45.190;5.732;2023-04-21T22:12:58;98499.66;;;18.68;47.03
15670;BME280;18524;45.190;5.732;2023-04-21T22:17:49;98511.47;;;18.65;46.97
15670;BME280;18524;45.190;5.732;2023-04-21T22:22:40;98517.88;;;18.56;46.37
15670;BME280;18524;45.190;5.732;2023-04-21T22:27:30;98513.69;;;18.62;46.83
15670;BME280;18524;45.190;5.732;2023-04-21T22:32:23;98532.16;;;18.55;45.33
15670;BME280;18524;45.190;5.732;2023-04-21T22:37:14;98535.00;;;18.54;46.54
15670;BME280;18524;45.190;5.732;2023-04-21T22:42:04;98533.94;;;18.48;47.09
15670;BME280;18524;45.190;5.732;2023-04-21T22:46:55;98536.09;;;18.38;47.50
15670;BME280;18524;45.190;5.732;2023-04-21T22:51:46;98540.31;;;18.32;46.16
15670;BME280;18524;45.190;5.732;2023-04-21T22:56:36;98551.50;;;18.28;46.87
15670;BME280;18524;45.190;5.732;2023-04-21T23:01:28;98550.31;;;18.30;45.89
15670;BME280;18524;45.190;5.732;2023-04-21T23:06:18;98553.91;;;18.23;46.67
15670;BME280;18524;45.190;5.732;2023-04-21T23:11:08;98549.94;;;18.33;45.69
15670;BME280;18524;45.190;5.732;2023-04-21T23:15:59;98557.84;;;18.12;47.65
15670;BME280;18524;45.190;5.732;2023-04-21T23:20:50;98554.81;;;18.15;47.36
15670;BME280;18524;45.190;5.732;2023-04-21T23:25:41;98546.13;;;18.21;47.88
15670;BME280;18524;45.190;5.732;2023-04-21T23:30:31;98549.34;;;18.02;48.25
15670;BME280;18524;45.190;5.732;2023-04-21T23:35:22;98549.69;;;18.13;47.68
15670;BME280;18524;45.190;5.732;2023-04-21T23:40:12;98544.59;;;17.97;47.31
15670;BME280;18524;45.190;5.732;2023-04-21T23:45:03;98547.88;;;17.99;46.07
15670;BME280;18524;45.190;5.732;2023-04-21T23:49:54;98544.16;;;17.94;45.95
15670;BME280;18524;45.190;5.732;2023-04-21T23:54:44;98545.06;;;18.01;46.08
15670;BME280;18524;45.190;5.732;2023-04-21T23:59:35;98539.28;;;17.97;45.45
